createdAt,value
2023-01-20T00:00:29.216Z,1.96
2023-01-20T00:10:50.583Z,1.87
2023-01-20T00:21:13.348Z,1.80
2023-01-20T00:31:36.163Z,1.72
2023-01-20T00:41:57.579Z,1.58
2023-01-20T00:52:18.960Z,1.50
2023-01-20T01:02:40.313Z,1.53
2023-01-20T01:13:02.711Z,1.47
2023-01-20T01:23:24.108Z,1.48
2023-01-20T01:33:45.460Z,1.28
2023-01-20T01:44:08.555Z,1.34
2023-01-20T01:54:33.041Z,1.45
2023-01-20T02:04:54.553Z,1.49
2023-01-20T02:15:17.003Z,1.59
2023-01-20T02:25:41.440Z,1.64
2023-01-20T02:36:05.919Z,1.72
2023-01-20T02:46:33.292Z,1.74
2023-01-20T02:56:56.950Z,1.78
2023-01-20T03:07:20.276Z,1.79
2023-01-20T03:17:41.742Z,1.79
2023-01-20T03:28:03.168Z,1.83
2023-01-20T03:38:24.572Z,1.86
2023-01-20T03:49:01.316Z,1.88
2023-01-20T03:59:23.556Z,1.87
2023-01-20T04:09:47.722Z,1.88
2023-01-20T04:20:10.400Z,1.88
2023-01-20T04:30:31.771Z,1.95
2023-01-20T04:40:53.217Z,1.99
2023-01-20T04:51:15.058Z,2.00
2023-01-20T05:01:36.575Z,2.02
2023-01-20T05:11:57.973Z,2.01
2023-01-20T05:22:19.376Z,2.07
2023-01-20T05:32:40.748Z,2.15
2023-01-20T05:43:02.618Z,2.19
2023-01-20T05:53:24.037Z,2.23
2023-01-20T06:03:45.438Z,2.28
2023-01-20T06:14:06.796Z,2.29
2023-01-20T06:24:28.177Z,2.31
2023-01-20T06:34:49.526Z,2.30
2023-01-20T06:45:10.997Z,2.35
2023-01-20T06:55:32.601Z,2.34
2023-01-20T07:05:58.988Z,2.39
2023-01-20T07:16:20.445Z,2.42
2023-01-20T07:26:41.906Z,2.41
2023-01-20T07:37:03.518Z,2.44
2023-01-20T07:47:24.884Z,2.41
2023-01-20T07:57:46.300Z,2.35
2023-01-20T08:08:07.651Z,2.45
2023-01-20T08:18:29.605Z,2.55
2023-01-20T08:28:51.279Z,2.54
2023-01-20T08:39:18.029Z,2.60
2023-01-20T08:49:39.408Z,2.73
2023-01-20T09:00:00.809Z,2.76
2023-01-20T09:10:22.267Z,2.83
2023-01-20T09:20:43.623Z,2.84
2023-01-20T09:31:07.376Z,2.95
2023-01-20T09:41:49.026Z,3.08
2023-01-20T09:52:32.140Z,3.04
2023-01-20T10:02:59.469Z,3.04
2023-01-20T10:13:33.186Z,3.08
2023-01-20T10:24:00.505Z,3.11
2023-01-20T10:34:22.550Z,3.12
2023-01-20T10:44:45.186Z,3.09
2023-01-20T10:55:09.633Z,3.06
2023-01-20T11:05:41.156Z,3.04
2023-01-20T11:16:04.717Z,3.09
2023-01-20T11:26:31.992Z,3.21
2023-01-20T11:37:05.608Z,3.32
2023-01-20T11:47:31.563Z,3.32
2023-01-20T11:58:02.487Z,3.30
2023-01-20T12:08:27.823Z,3.48
2023-01-20T12:19:02.239Z,3.55
2023-01-20T12:29:45.693Z,3.53
2023-01-20T12:40:07.313Z,3.52
2023-01-20T12:50:37.893Z,3.72
2023-01-20T13:01:08.345Z,3.81
2023-01-20T13:11:50.128Z,3.85
2023-01-20T13:22:21.862Z,3.93
2023-01-20T13:32:45.175Z,3.93
2023-01-20T13:43:25.386Z,3.89
2023-01-20T13:53:47.143Z,3.77
2023-01-20T14:04:15.995Z,3.80
2023-01-20T14:14:41.484Z,3.87
2023-01-20T14:25:03.544Z,3.86
2023-01-20T14:35:33.442Z,3.79
2023-01-20T14:45:54.909Z,3.81
2023-01-20T14:56:18.135Z,3.86
2023-01-20T15:06:39.507Z,3.85
2023-01-20T15:17:00.950Z,3.72
2023-01-20T15:27:27.153Z,3.64
2023-01-20T15:37:49.129Z,3.60
2023-01-20T15:48:15.096Z,3.55
2023-01-20T15:58:36.938Z,3.56
2023-01-20T16:09:00.141Z,3.54
2023-01-20T16:19:21.635Z,3.48
2023-01-20T16:29:43.082Z,3.37
2023-01-20T16:40:04.697Z,3.24
2023-01-20T16:50:28.261Z,3.03
2023-01-20T17:00:49.775Z,2.87
2023-01-20T17:11:11.345Z,2.78
2023-01-20T17:21:34.151Z,2.68
2023-01-20T17:31:55.670Z,2.52
2023-01-20T17:42:17.737Z,2.40
2023-01-20T17:52:39.270Z,2.26
2023-01-20T18:03:00.680Z,2.15
2023-01-20T18:13:22.040Z,2.11
2023-01-20T18:23:43.845Z,2.02
2023-01-20T18:34:06.383Z,2.01
2023-01-20T18:44:27.789Z,1.95
2023-01-20T18:54:49.123Z,1.90
2023-01-20T19:05:10.537Z,1.85
2023-01-20T19:15:33.663Z,1.75
2023-01-20T19:26:05.575Z,1.63
2023-01-20T19:36:26.971Z,1.59
2023-01-20T19:46:48.345Z,1.52
2023-01-20T19:57:09.775Z,1.49
2023-01-20T20:07:33.488Z,1.44
2023-01-20T20:17:54.875Z,1.39
2023-01-20T20:28:16.289Z,1.36
2023-01-20T20:38:39.428Z,1.32
2023-01-20T20:49:01.147Z,1.27
2023-01-20T20:59:24.658Z,1.23
2023-01-20T21:09:46.075Z,1.19
2023-01-20T21:20:07.889Z,1.17
2023-01-20T21:30:29.282Z,1.16
2023-01-20T21:41:09.917Z,1.11
2023-01-20T21:51:50.184Z,1.11
2023-01-20T22:02:12.575Z,1.07
2023-01-20T22:12:35.519Z,0.92
2023-01-20T22:22:56.877Z,0.87
2023-01-20T22:33:18.277Z,0.79
2023-01-20T22:43:41.097Z,0.75
2023-01-20T22:54:02.531Z,0.70
2023-01-20T23:04:23.939Z,0.66
2023-01-20T23:15:00.595Z,0.66
2023-01-20T23:25:21.964Z,0.66
2023-01-20T23:35:43.378Z,0.66
2023-01-20T23:46:06.203Z,0.64
2023-01-20T23:56:27.672Z,0.69
